Time;durP1;ratioP1;P1;durP2;ratioP2;P2;SDS_P1;SDS_P2;PMS_P1;PMS_P2;Temp;Humidity;BMP_temperature;BMP_pressure;BME280_temperature;BME280_humidity;BME280_pressure;Samples;Min_cycle;Max_cycle;Signal;HPM_P1;HPM_P2
2022/12/07 00:01:25;;;;;;;13.80;8.30;;;;;;;2.56;97.37;98778.37;1714926;82;21082;-77
2022/12/07 00:04:04;;;;;;;11.30;8.18;;;;;;;2.54;97.35;98774.98;1703876;82;21070;-77
2022/12/07 00:06:27;;;;;;;15.13;9.05;;;;;;;2.54;97.30;98777.56;1716538;82;21050;-77
2022/12/07 00:08:54;;;;;;;12.28;9.13;;;;;;;2.54;97.33;98774.53;1713887;83;21006;-76
2022/12/07 00:11:22;;;;;;;14.25;9.58;;;;;;;2.56;97.33;98778.37;1712709;83;21082;-76
2022/12/07 00:13:57;;;;;;;12.68;8.53;;;;;;;2.56;97.34;98771.92;1699420;82;21009;-76
2022/12/07 00:16:28;;;;;;;13.65;8.73;;;;;;;2.56;97.36;98775.79;1707129;82;21068;-76
2022/12/07 00:18:55;;;;;;;14.80;9.08;;;;;;;2.54;97.21;98770.67;1711053;82;21057;-76
2022/12/07 00:21:27;;;;;;;12.43;8.53;;;;;;;2.54;97.20;98777.56;1707993;82;21025;-76
2022/12/07 00:23:55;;;;;;;15.28;8.88;;;;;;;2.51;97.30;98769.47;1710722;82;21148;-76
2022/12/07 00:26:29;;;;;;;14.80;8.65;;;;;;;2.51;97.24;98764.77;1708347;83;21026;-76
2022/12/07 00:28:59;;;;;;;12.13;8.90;;;;;;;2.51;97.27;98760.91;1702077;82;21021;-77
2022/12/07 00:31:30;;;;;;;15.43;9.28;;;;;;;2.50;97.24;98765.67;1709161;82;20994;-76
2022/12/07 00:33:58;;;;;;;10.65;7.37;;;;;;;2.50;97.35;98760.52;1697898;82;21002;-76
2022/12/07 00:36:26;;;;;;;10.18;7.25;;;;;;;2.50;97.37;98756.66;1704556;82;21026;-76
2022/12/07 00:38:54;;;;;;;13.53;8.93;;;;;;;2.46;97.19;98761.90;1709868;83;21069;-76
2022/12/07 00:41:23;;;;;;;13.43;9.10;;;;;;;2.45;97.26;98764.05;1706584;82;21009;-76
2022/12/07 00:43:52;;;;;;;12.73;8.73;;;;;;;2.48;97.36;98751.98;1703019;83;21077;-76
2022/12/07 00:46:21;;;;;;;11.60;8.68;;;;;;;2.49;97.39;98754.95;1708639;82;21049;-76
2022/12/07 00:48:49;;;;;;;11.38;8.00;;;;;;;2.48;97.24;98757.13;1705361;82;21092;-76
2022/12/07 00:51:19;;;;;;;13.60;8.50;;;;;;;2.46;97.23;98756.75;1711287;82;21061;-76
2022/12/07 00:53:47;;;;;;;10.78;7.78;;;;;;;2.49;97.45;98752.37;1716935;82;21129;-77
2022/12/07 00:56:24;;;;;;;11.48;8.10;;;;;;;2.50;97.46;98745.89;1711682;82;21053;-76
2022/12/07 00:58:54;;;;;;;12.93;8.30;;;;;;;2.54;97.47;98744.90;1711924;82;20970;-76
2022/12/07 01:01:20;;;;;;;12.23;8.03;;;;;;;2.33;97.92;98738.67;1702219;82;21022;-76
2022/12/07 01:03:47;;;;;;;11.12;7.67;;;;;;;2.28;98.19;98730.23;1718596;82;21031;-76
2022/12/07 01:06:17;;;;;;;12.78;8.20;;;;;;;2.30;98.42;98731.03;1713744;83;21033;-77
2022/12/07 01:08:45;;;;;;;12.25;7.20;;;;;;;2.30;98.50;98728.46;1716409;82;21569;-76
2022/12/07 01:11:19;;;;;;;10.95;7.37;;;;;;;2.44;98.08;98722.45;1712390;83;21350;-77
2022/12/07 01:13:46;;;;;;;13.90;8.65;;;;;;;2.51;97.63;98724.83;1707027;82;21585;-76
2022/12/07 01:16:15;;;;;;;11.10;8.13;;;;;;;2.53;97.56;98721.77;1710733;82;21648;-76
2022/12/07 01:18:44;;;;;;;11.40;8.15;;;;;;;2.53;97.43;98721.77;1714983;82;21124;-76
2022/12/07 01:21:16;;;;;;;11.03;8.23;;;;;;;2.55;97.45;98725.12;1707828;83;21065;-76
2022/12/07 01:23:45;;;;;;;10.78;7.92;;;;;;;2.52;97.37;98718.36;1712985;82;21022;-77
2022/12/07 01:26:16;;;;;;;10.23;7.40;;;;;;;2.53;97.44;98720.48;1714651;82;21068;-76
2022/12/07 01:28:42;;;;;;;9.73;7.20;;;;;;;2.55;97.48;98716.10;1712785;82;21421;-76
2022/12/07 01:31:16;;;;;;;10.63;6.67;;;;;;;2.57;97.55;98722.06;1709043;82;21073;-76
2022/12/07 01:33:47;;;;;;;12.18;6.85;;;;;;;2.58;97.50;98717.33;1713042;82;21059;-76
2022/12/07 01:36:33;;;;;;;9.85;7.00;;;;;;;2.58;97.49;98717.33;1707865;82;21576;-76
2022/12/07 01:39:03;;;;;;;11.90;6.25;;;;;;;2.58;97.55;98719.91;1717439;83;21073;-76
2022/12/07 01:41:34;;;;;;;11.25;7.40;;;;;;;2.60;97.56;98715.52;1715101;83;21037;-76
2022/12/07 01:44:27;;;;;;;14.20;6.60;;;;;;;2.55;97.43;98709.66;1713862;83;21529;-76
2022/12/07 01:47:00;;;;;;;7.90;5.92;;;;;;;2.55;97.68;98710.95;1722283;83;21626;-76
2022/12/07 01:49:38;;;;;;;11.12;6.42;;;;;;;2.41;98.36;98705.80;1709068;82;21037;-76
2022/12/07 01:52:27;;;;;;;10.18;6.58;;;;;;;2.48;98.33;98705.60;1717637;82;21069;-77
2022/12/07 01:54:58;;;;;;;9.68;6.33;;;;;;;2.49;98.17;98707.28;1704482;82;21045;-76
2022/12/07 01:57:26;;;;;;;7.53;5.65;;;;;;;2.46;98.17;98703.93;1709224;82;21022;-76
2022/12/07 01:59:56;;;;;;;9.23;6.37;;;;;;;2.39;98.33;98706.28;1708596;82;21022;-77
2022/12/07 02:02:36;;;;;;;9.03;6.22;;;;;;;2.39;98.51;98707.56;1713804;82;20974;-77
2022/12/07 02:05:06;;;;;;;9.23;6.08;;;;;;;2.38;98.45;98695.59;1710352;83;21640;-77
2022/12/07 02:07:36;;;;;;;8.50;6.15;;;;;;;2.37;98.52;98697.75;1711580;83;21623;-77
2022/12/07 02:10:24;;;;;;;10.53;5.80;;;;;;;2.38;98.58;98699.45;1708044;82;21591;-77
2022/12/07 02:12:53;;;;;;;;;;;;;;;2.55;98.17;98691.63;1713250;83;20959;-76
2022/12/07 02:15:25;;;;;;;15.00;5.50;;;;;;;2.58;97.87;98691.55;1714033;82;20164;-76
2022/12/07 02:18:02;;;;;;;13.18;6.10;;;;;;;2.60;97.80;98694.91;1711659;83;20959;-76
2022/12/07 02:20:46;;;;;;;12.63;6.20;;;;;;;2.60;97.73;98689.75;1709652;83;21048;-76
2022/12/07 02:23:42;;;;;;;9.50;5.12;;;;;;;2.62;97.62;98687.98;1704345;82;21085;-76
2022/12/07 02:26:25;;;;;;;5.87;5.28;;;;;;;2.59;97.79;98685.50;1722137;82;21065;-77
2022/12/07 02:29:12;;;;;;;9.35;5.05;;;;;;;2.62;97.64;98677.67;1707311;82;20950;-77
2022/12/07 02:31:52;;;;;;;6.08;4.95;;;;;;;2.63;97.71;98676.77;1707863;83;21084;-77
2022/12/07 02:34:42;;;;;;;10.10;5.12;;;;;;;2.66;97.80;98671.51;1712364;82;21049;-76
2022/12/07 02:37:17;;;;;;;12.80;4.85;;;;;;;2.67;97.82;98671.47;1719264;82;21608;-76
2022/12/07 02:39:49;;;;;;;8.00;5.10;;;;;;;2.57;98.35;98671.81;1708824;82;21101;-77
2022/12/07 02:42:21;;;;;;;5.47;4.45;;;;;;;2.57;98.57;98669.23;1714287;82;21004;-76
2022/12/07 02:44:48;;;;;;;8.03;5.00;;;;;;;2.55;98.58;98661.98;1699732;82;21615;-76
2022/12/07 02:47:18;;;;;;;8.00;5.12;;;;;;;2.55;98.76;98658.13;1709139;82;21632;-76
2022/12/07 02:49:46;;;;;;;6.08;4.37;;;;;;;2.56;98.74;98658.54;1720774;82;21620;-77
2022/12/07 02:52:12;;;;;;;5.00;4.12;;;;;;;2.75;98.13;98658.34;1718733;82;21051;-76
2022/12/07 02:54:39;;;;;;;8.75;3.87;;;;;;;2.60;98.82;98643.36;1712958;83;21073;-76
2022/12/07 02:57:29;;;;;;;6.72;4.35;;;;;;;2.64;99.03;98647.09;1702919;83;21485;-76
2022/12/07 03:00:06;;;;;;;5.30;4.28;;;;;;;2.75;99.10;98637.73;1694287;83;21012;-77
2022/12/07 03:03:02;;;;;;;6.22;3.80;;;;;;;2.88;98.37;98642.84;1704307;82;22358;-77
2022/12/07 03:06:00;;;;;;;4.75;3.77;;;;;;;2.70;98.94;98635.73;1694160;83;21129;-77
2022/12/07 03:08:50;;;;;;;5.00;4.05;;;;;;;2.72;99.20;98632.67;1697295;83;21532;-77
2022/12/07 03:11:34;;;;;;;4.40;3.83;;;;;;;2.75;99.13;98642.88;1694126;83;21560;-76
2022/12/07 03:14:09;;;;;;;4.40;3.55;;;;;;;2.87;98.69;98634.73;1690444;83;21481;-76
2022/12/07 03:16:47;;;;;;;4.90;3.75;;;;;;;2.91;98.00;98631.17;1696938;83;21528;-76
2022/12/07 03:19:18;;;;;;;4.37;3.98;;;;;;;2.94;98.06;98633.23;1695387;83;21057;-76
2022/12/07 03:21:58;;;;;;;4.30;3.45;;;;;;;2.97;98.04;98630.13;1694400;83;21001;-76
2022/12/07 03:24:33;;;;;;;3.65;3.35;;;;;;;2.98;97.91;98629.67;1696751;83;20974;-76
2022/12/07 03:27:22;;;;;;;4.90;3.52;;;;;;;2.95;97.93;98631.06;1673087;84;21108;-77
2022/12/07 03:29:56;;;;;;;4.03;3.62;;;;;;;2.96;97.95;98631.45;1696092;83;21356;-76
2022/12/07 03:32:45;;;;;;;6.87;3.40;;;;;;;2.98;97.90;98636.12;1694685;83;21021;-76
2022/12/07 03:35:21;;;;;;;4.22;3.72;;;;;;;2.99;97.95;98627.02;1693464;83;21036;-76
2022/12/07 03:38:28;;;;;;;4.62;3.58;;;;;;;2.97;97.84;98621.52;1694304;83;20997;-76
2022/12/07 03:41:03;;;;;;;;;;;;;;;2.95;97.89;98617.72;1684191;84;21104;-77
2022/12/07 03:43:31;;;;;;;3.98;3.50;;;;;;;2.98;97.96;98613.75;1691023;83;20399;-77
2022/12/07 03:46:15;;;;;;;3.55;2.65;;;;;;;2.96;97.89;98610.82;1694662;83;20930;-76
2022/12/07 03:48:56;;;;;;;3.77;2.98;;;;;;;2.91;97.83;98605.81;1661676;84;21093;-77
2022/12/07 03:52:05;;;;;;;3.90;2.90;;;;;;;2.88;97.84;98597.73;1691450;83;21045;-77
2022/12/07 03:54:37;;;;;;;2.45;2.25;;;;;;;2.65;98.79;98602.83;1689536;83;22350;-77
2022/12/07 03:57:06;;;;;;;3.00;2.40;;;;;;;2.75;98.83;98593.91;1693347;83;21080;-77
2022/12/07 03:59:33;;;;;;;2.55;1.98;;;;;;;2.74;98.63;98594.78;1691152;83;21524;-76
2022/12/07 04:02:06;;;;;;;2.00;1.80;;;;;;;2.73;98.60;98599.55;1694593;83;21579;-76
2022/12/07 04:04:34;;;;;;;1.80;1.70;;;;;;;2.64;98.72;98586.98;1699454;83;21045;-76
2022/12/07 04:07:01;;;;;;;1.70;1.60;;;;;;;2.63;98.94;98580.12;1709386;83;20980;-76
2022/12/07 04:09:28;;;;;;;2.42;1.42;;;;;;;2.62;98.96;98578.45;1672614;85;21563;-76
2022/12/07 04:11:55;;;;;;;1.70;1.50;;;;;;;2.61;99.06;98583.22;1670247;86;21496;-76
2022/12/07 04:14:21;;;;;;;2.72;1.45;;;;;;;2.79;98.44;98582.58;1674523;85;21033;-76
2022/12/07 04:16:58;;;;;;;1.30;1.20;;;;;;;2.87;98.06;98576.72;1660912;86;21512;-77
2022/12/07 04:19:29;;;;;;;2.12;1.60;;;;;;;2.90;97.99;98577.91;1673311;85;20981;-76
2022/12/07 04:21:57;;;;;;;1.77;1.30;;;;;;;2.94;97.88;98576.50;1670111;86;21025;-77
2022/12/07 04:24:24;;;;;;;0.82;0.82;;;;;;;2.95;97.92;98570.47;1674391;85;21024;-76
2022/12/07 04:26:51;;;;;;;1.77;1.10;;;;;;;2.97;97.87;98567.37;1668966;84;21544;-77
2022/12/07 04:29:19;;;;;;;2.00;0.80;;;;;;;2.98;97.83;98563.91;1672996;85;21489;-77
2022/12/07 04:31:47;;;;;;;0.90;0.90;;;;;;;2.91;97.72;98558.98;1670037;84;22336;-76
2022/12/07 04:34:14;;;;;;;;;;;;;;;2.90;97.70;98562.44;1670540;86;21108;-76
2022/12/07 04:36:41;;;;;;;1.00;0.90;;;;;;;2.88;97.80;98569.38;1668023;84;20136;-75
2022/12/07 04:39:12;;;;;;;0.98;0.82;;;;;;;2.90;97.95;98567.59;1670987;86;20990;-76
2022/12/07 04:41:38;;;;;;;0.98;0.90;;;;;;;2.91;97.99;98565.42;1671927;85;21055;-76
2022/12/07 04:44:07;;;;;;;0.80;0.80;;;;;;;2.93;98.03;98565.80;1670355;86;21069;-77
2022/12/07 04:46:34;;;;;;;1.15;0.70;;;;;;;2.97;98.01;98566.08;1674625;85;21067;-77
2022/12/07 04:49:01;;;;;;;1.12;0.90;;;;;;;2.96;97.93;98564.41;1673647;86;21007;-76
2022/12/07 04:51:29;;;;;;;1.17;1.00;;;;;;;2.96;97.83;98557.96;1665039;86;21085;-77
2022/12/07 04:53:57;;;;;;;0.93;0.80;;;;;;;2.95;97.84;98553.71;1671321;86;21050;-77
2022/12/07 04:56:25;;;;;;;2.75;1.45;;;;;;;2.83;98.01;98554.53;1672803;85;21441;-77
2022/12/07 04:58:54;;;;;;;2.75;1.80;;;;;;;2.74;98.47;98557.86;1629342;87;21620;-77
2022/12/07 05:01:22;;;;;;;3.00;2.33;;;;;;;2.45;98.45;98552.78;1652364;86;21042;-77
2022/12/07 05:03:49;;;;;;;2.90;1.82;;;;;;;2.60;98.25;98550.59;1667399;86;21016;-77
2022/12/07 05:06:17;;;;;;;4.58;2.12;;;;;;;2.63;97.95;98545.33;1668439;84;21106;-77
2022/12/07 05:08:43;;;;;;;1.30;1.20;;;;;;;2.66;97.91;98547.80;1678320;84;21037;-77
2022/12/07 05:11:37;;;;;;;1.17;1.07;;;;;;;2.63;97.76;98541.47;1694362;83;21519;-77
2022/12/07 05:13:42;;;;;;;1.00;0.90;;;;;;;2.59;97.71;98538.61;1654120;85;21088;-77
2022/12/07 05:16:09;;;;;;;0.82;0.80;;;;;;;2.49;97.61;98543.21;1637672;86;21053;-77
2022/12/07 05:18:35;;;;;;;0.65;0.62;;;;;;;2.42;97.64;98539.17;1640298;86;21055;-77
2022/12/07 05:21:02;;;;;;;1.00;0.70;;;;;;;2.16;98.40;98542.61;1650846;86;20993;-77
2022/12/07 05:23:28;;;;;;;0.60;0.55;;;;;;;2.19;98.68;98539.48;1687316;83;22040;-77
2022/12/07 05:25:55;;;;;;;0.53;0.50;;;;;;;2.25;98.05;98534.58;1668915;84;21118;-77
2022/12/07 05:28:22;;;;;;;1.35;0.95;;;;;;;2.28;97.94;98530.61;1643851;85;21054;-77
2022/12/07 05:30:48;;;;;;;0.78;0.65;;;;;;;2.31;97.92;98525.35;1643221;84;20988;-77
2022/12/07 05:33:15;;;;;;;2.10;1.17;;;;;;;2.36;97.86;98526.05;1628154;85;21025;-77
2022/12/07 05:35:42;;;;;;;1.42;1.32;;;;;;;2.44;98.04;98525.34;1650755;84;21000;-76
2022/12/07 05:38:08;;;;;;;2.58;1.47;;;;;;;2.49;98.04;98519.19;1700592;82;21028;-77
2022/12/07 05:40:36;;;;;;;1.07;0.98;;;;;;;2.51;97.82;98527.72;1696325;83;20958;-77
2022/12/07 05:43:03;;;;;;;1.35;1.25;;;;;;;2.50;97.78;98525.59;1693675;82;20973;-77
2022/12/07 05:45:30;;;;;;;2.65;1.60;;;;;;;2.48;97.68;98529.11;1702422;83;21642;-77
2022/12/07 05:47:56;;;;;;;1.50;1.35;;;;;;;2.49;97.72;98529.49;1705647;83;21551;-77
2022/12/07 05:50:23;;;;;;;2.25;1.25;;;;;;;2.45;97.62;98527.02;1694076;83;20969;-77
2022/12/07 05:52:49;;;;;;;2.55;1.70;;;;;;;2.43;97.70;98525.39;1703604;82;21028;-77
2022/12/07 05:55:16;;;;;;;2.00;1.80;;;;;;;2.40;97.66;98531.48;1696248;82;20977;-77
2022/12/07 05:59:22;;;;;;;2.40;2.07;;;;;;;2.39;97.65;98522.53;1705102;82;21574;-76
2022/12/07 06:00:13;;;;;;;3.00;2.02;;;;;;;2.34;97.54;98518.81;1694920;82;21022;-77
2022/12/07 06:02:40;;;;;;;1.45;1.35;;;;;;;2.32;97.66;98520.59;1701423;82;20989;-77
2022/12/07 06:05:08;;;;;;;3.10;1.32;;;;;;;2.26;97.53;98516.93;1700771;82;21006;-77
2022/12/07 06:07:34;;;;;;;;;;;;;;;2.19;97.53;98516.75;1701439;82;21053;-77
2022/12/07 06:10:00;;;;;;;0.90;0.85;;;;;;;2.12;97.37;98515.25;1702624;82;20455;-77
2022/12/07 06:12:38;;;;;;;1.45;0.80;;;;;;;2.03;97.29;98512.98;1715756;83;21701;-77
2022/12/07 06:15:05;;;;;;;1.00;0.90;;;;;;;1.93;97.57;98518.43;1716164;82;21429;-76
2022/12/07 06:17:32;;;;;;;1.67;1.15;;;;;;;1.96;97.50;98518.34;1713004;82;20970;-76
2022/12/07 06:19:59;;;;;;;1.72;1.45;;;;;;;1.98;97.56;98508.80;1698679;82;21108;-77
2022/12/07 06:22:25;;;;;;;1.72;1.47;;;;;;;1.99;97.56;98510.51;1711118;82;20993;-76
2022/12/07 06:24:52;;;;;;;1.63;1.30;;;;;;;2.02;97.58;98508.28;1711691;83;21522;-77
2022/12/07 06:27:18;;;;;;;1.42;1.10;;;;;;;2.07;97.64;98511.98;1675959;83;21722;-77
2022/12/07 06:29:45;;;;;;;1.30;1.20;;;;;;;2.09;97.64;98511.49;1709905;82;21073;-76
2022/12/07 06:32:12;;;;;;;1.50;1.40;;;;;;;2.09;97.68;98508.47;1715884;82;21022;-77
2022/12/07 06:34:38;;;;;;;2.08;1.20;;;;;;;2.17;97.88;98505.66;1721916;82;21027;-77
2022/12/07 06:37:05;;;;;;;1.17;0.98;;;;;;;2.21;97.86;98498.20;1699978;82;20970;-77
2022/12/07 06:39:32;;;;;;;1.23;1.13;;;;;;;2.01;98.67;98500.98;1698517;82;21552;-77
2022/12/07 06:41:58;;;;;;;2.00;1.80;;;;;;;2.01;98.84;98502.27;1698464;82;21001;-76
2022/12/07 06:44:25;;;;;;;3.05;2.12;;;;;;;2.03;98.93;98497.53;1699873;83;20946;-76
2022/12/07 06:46:52;;;;;;;2.15;1.62;;;;;;;2.05;98.83;98480.31;1709930;83;20927;-77
2022/12/07 06:49:19;;;;;;;1.60;1.37;;;;;;;2.23;98.41;98496.43;1699234;82;21040;-77
2022/12/07 06:51:45;;;;;;;3.20;1.62;;;;;;;2.30;98.07;98500.50;1708708;83;21536;-77
2022/12/07 06:54:15;;;;;;;2.17;1.65;;;;;;;2.32;97.94;98497.41;1705580;83;21072;-77
2022/12/07 06:56:42;;;;;;;3.00;2.20;;;;;;;2.34;97.99;98493.05;1718562;82;21532;-77
2022/12/07 06:59:08;;;;;;;1.87;1.67;;;;;;;2.16;98.72;98496.25;1698899;83;21603;-77
2022/12/07 07:01:36;;;;;;;2.70;2.15;;;;;;;2.35;98.35;98497.33;1712960;83;20982;-77
2022/12/07 07:04:03;;;;;;;3.92;2.98;;;;;;;2.42;98.08;98495.38;1709485;82;21596;-77
2022/12/07 07:06:31;;;;;;;4.83;3.17;;;;;;;2.40;97.80;98495.41;1711253;82;21533;-77
2022/12/07 07:08:57;;;;;;;4.15;2.70;;;;;;;2.35;97.62;98492.17;1698119;83;21034;-77
2022/12/07 07:11:24;;;;;;;4.75;2.65;;;;;;;2.32;97.57;98494.83;1673867;85;20988;-77
2022/12/07 07:13:50;;;;;;;3.67;2.47;;;;;;;2.29;97.54;98497.51;1656141;86;21041;-77
2022/12/07 07:16:17;;;;;;;3.05;2.75;;;;;;;2.27;97.54;98489.02;1668722;86;21024;-77
2022/12/07 07:18:43;;;;;;;6.05;2.85;;;;;;;2.26;97.63;98496.33;1634726;87;21008;-77
2022/12/07 07:21:10;;;;;;;5.17;3.35;;;;;;;2.28;97.64;98490.69;1668703;86;21046;-77
2022/12/07 07:23:37;;;;;;;5.53;3.20;;;;;;;2.34;97.76;98494.79;1668894;86;21648;-77
2022/12/07 07:26:04;;;;;;;4.20;3.58;;;;;;;2.37;97.72;98489.08;1671648;86;21577;-77
2022/12/07 07:28:30;;;;;;;3.20;2.90;;;;;;;2.41;97.70;98486.81;1671596;86;20975;-77
2022/12/07 07:30:57;;;;;;;6.20;3.77;;;;;;;2.45;97.68;98490.95;1675743;84;21038;-77
2022/12/07 07:33:23;;;;;;;4.53;3.10;;;;;;;2.49;97.69;98490.84;1673222;83;21115;-77
2022/12/07 07:35:50;;;;;;;4.50;3.83;;;;;;;2.52;97.73;98492.02;1674716;86;21062;-77
2022/12/07 07:38:17;;;;;;;4.05;3.55;;;;;;;2.54;97.70;98494.11;1664201;85;21502;-77
2022/12/07 07:40:43;;;;;;;4.53;4.10;;;;;;;2.58;97.72;98490.55;1714957;82;21067;-77
2022/12/07 07:43:10;;;;;;;3.52;3.22;;;;;;;2.64;97.71;98483.89;1710663;83;20972;-77
2022/12/07 07:45:36;;;;;;;4.72;3.92;;;;;;;2.71;97.54;98486.63;1674957;85;20988;-77
2022/12/07 07:48:03;;;;;;;5.80;4.20;;;;;;;2.77;97.49;98481.25;1664225;86;21077;-77
2022/12/07 07:50:30;;;;;;;5.27;3.50;;;;;;;2.78;97.39;98482.95;1669172;85;21024;-77
2022/12/07 07:52:58;;;;;;;6.20;4.17;;;;;;;2.78;97.21;98481.67;1706484;83;21012;-77
2022/12/07 07:55:24;;;;;;;5.65;3.62;;;;;;;2.74;97.32;98486.52;1674733;85;21566;-77
2022/12/07 07:57:51;;;;;;;4.35;3.65;;;;;;;2.71;97.50;98486.63;1664523;86;21046;-77
2022/12/07 08:00:18;;;;;;;4.53;3.40;;;;;;;2.74;97.60;98483.94;1669037;86;21060;-77
2022/12/07 08:02:45;;;;;;;4.42;3.10;;;;;;;2.77;97.72;98480.42;1716968;83;21021;-70
2022/12/07 08:05:13;;;;;;;;;;;;;;;2.76;97.62;98484.73;1677458;85;21092;-71
2022/12/07 08:07:40;;;;;;;4.53;3.42;;;;;;;2.78;97.67;98485.53;1657558;86;20468;-70
2022/12/07 08:10:08;;;;;;;;;;;;;;;2.76;97.69;98479.58;1678759;84;20995;-71
2022/12/07 08:13:10;;;;;;;4.58;3.25;;;;;;;2.74;97.50;98481.36;1642534;85;20104;-70
2022/12/07 08:15:10;;;;;;;5.75;4.08;;;;;;;2.72;97.65;98483.18;1666147;86;20998;-70
2022/12/07 08:17:36;;;;;;;5.87;3.75;;;;;;;2.72;97.71;98479.31;1676255;85;21463;-71
2022/12/07 08:20:05;;;;;;;3.63;3.10;;;;;;;2.72;97.68;98480.60;1674129;85;21017;-71
2022/12/07 08:22:32;;;;;;;7.70;4.45;;;;;;;2.69;97.65;98480.71;1672759;86;21405;-74
2022/12/07 08:24:59;;;;;;;3.77;3.12;;;;;;;2.67;97.68;98478.17;1679697;84;21595;-77
2022/12/07 08:27:26;;;;;;;3.52;3.00;;;;;;;2.69;97.63;98472.98;1689141;82;21020;-77
2022/12/07 08:29:53;;;;;;;5.00;3.12;;;;;;;2.63;97.43;98475.75;1674216;84;21058;-76
2022/12/07 08:32:20;;;;;;;3.30;2.90;;;;;;;2.63;97.46;98465.44;1724095;82;21074;-77
2022/12/07 08:34:46;;;;;;;3.50;3.00;;;;;;;2.62;97.44;98467.63;1709756;82;20970;-77
2022/12/07 08:37:13;;;;;;;3.58;2.67;;;;;;;2.58;97.33;98467.36;1708050;82;21063;-77
2022/12/07 08:39:40;;;;;;;3.62;3.15;;;;;;;2.57;97.34;98470.81;1712384;83;21069;-77
2022/12/07 08:42:06;;;;;;;3.00;2.70;;;;;;;2.56;97.33;98471.72;1709525;83;21075;-77
2022/12/07 08:44:33;;;;;;;2.75;2.55;;;;;;;2.52;97.42;98464.55;1718543;82;21210;-77
2022/12/07 08:47:04;;;;;;;4.17;2.98;;;;;;;2.57;97.57;98473.39;1710274;82;21058;-77
2022/12/07 08:49:41;;;;;;;2.70;2.42;;;;;;;2.60;97.51;98466.84;1699094;83;21041;-77
2022/12/07 08:52:07;;;;;;;6.03;2.73;;;;;;;2.65;97.59;98473.52;1710849;82;20982;-77
2022/12/07 08:54:38;;;;;;;3.05;2.30;;;;;;;2.63;97.70;98457.70;1707218;82;22318;-77
2022/12/07 08:57:06;;;;;;;3.00;2.58;;;;;;;2.76;97.65;98464.12;1716436;82;21006;-77
2022/12/07 08:59:35;;;;;;;7.00;3.70;;;;;;;2.83;97.54;98457.86;1706105;83;21037;-77
2022/12/07 09:02:01;;;;;;;5.60;3.17;;;;;;;2.86;97.55;98457.75;1708097;82;20982;-77
2022/12/07 09:04:28;;;;;;;4.30;2.50;;;;;;;2.91;97.75;98453.27;1698173;82;21028;-77
2022/12/07 09:06:55;;;;;;;3.67;2.87;;;;;;;3.00;97.78;98457.24;1708739;83;21107;-77
2022/12/07 09:09:22;;;;;;;6.53;3.10;;;;;;;3.06;97.75;98451.02;1715214;82;20977;-77
2022/12/07 09:11:49;;;;;;;4.10;2.72;;;;;;;3.07;97.50;98453.53;1710199;82;21062;-77
2022/12/07 09:14:17;;;;;;;3.37;2.63;;;;;;;3.10;97.54;98450.00;1723451;82;22449;-77
2022/12/07 09:16:45;;;;;;;5.08;2.92;;;;;;;3.12;97.46;98443.88;1701446;83;21028;-76
2022/12/07 09:19:11;;;;;;;3.08;2.30;;;;;;;3.16;97.48;98443.31;1707986;83;21062;-77
2022/12/07 09:21:38;;;;;;;3.95;2.22;;;;;;;3.17;97.45;98441.14;1687265;82;21055;-77
2022/12/07 09:24:05;;;;;;;4.25;3.37;;;;;;;3.15;97.27;98440.35;1735723;82;21117;-77
2022/12/07 09:26:32;;;;;;;2.75;2.22;;;;;;;3.08;97.00;98437.59;1731380;80;21097;-77
2022/12/07 09:28:58;;;;;;;3.22;2.70;;;;;;;3.07;97.17;98429.48;1733364;82;21081;-77
2022/12/07 09:31:26;;;;;;;3.55;2.85;;;;;;;3.10;97.18;98424.20;1727779;82;21067;-77
2022/12/07 09:33:59;;;;;;;6.80;3.80;;;;;;;3.09;97.25;98433.69;1716489;82;21064;-77
2022/12/07 09:36:27;;;;;;;7.78;4.65;;;;;;;3.12;97.28;98419.84;1724450;82;21013;-77
2022/12/07 09:38:54;;;;;;;4.45;2.90;;;;;;;3.08;97.08;98425.99;1727790;82;21581;-76
2022/12/07 09:41:23;;;;;;;4.15;2.90;;;;;;;3.07;97.11;98424.32;1726005;82;21591;-77
2022/12/07 09:43:50;;;;;;;6.62;2.80;;;;;;;3.07;97.14;98419.16;1725945;82;21089;-76
2022/12/07 09:46:19;;;;;;;5.55;2.87;;;;;;;3.05;96.88;98426.11;1717922;83;21034;-77
2022/12/07 09:48:48;;;;;;;4.08;3.02;;;;;;;3.04;96.98;98423.16;1698774;82;21554;-76
2022/12/07 09:51:22;;;;;;;4.20;3.12;;;;;;;3.04;96.92;98423.16;1695525;82;21061;-77
2022/12/07 09:53:51;;;;;;;3.55;3.25;;;;;;;3.03;96.95;98420.19;1706009;83;20982;-77
2022/12/07 09:56:19;;;;;;;3.67;3.02;;;;;;;3.06;97.03;98409.76;1689368;83;21529;-76
2022/12/07 09:58:47;;;;;;;4.78;3.83;;;;;;;3.01;96.87;98408.63;1654485;86;21315;-77
2022/12/07 10:01:20;;;;;;;3.42;3.12;;;;;;;2.98;96.67;98406.63;1636596;87;21090;-77
2022/12/07 10:03:57;;;;;;;3.40;3.10;;;;;;;2.95;96.79;98413.19;1648496;86;21010;-77
2022/12/07 10:06:24;;;;;;;4.30;3.37;;;;;;;2.95;96.82;98411.90;1649243;85;21127;-77
2022/12/07 10:08:51;;;;;;;3.98;3.10;;;;;;;2.96;96.78;98413.57;1685962;84;21085;-77
2022/12/07 10:11:17;;;;;;;3.67;3.15;;;;;;;2.95;96.77;98411.90;1666045;84;22348;-76
2022/12/07 10:13:48;;;;;;;3.97;3.53;;;;;;;2.95;96.67;98411.90;1663623;84;21571;-77
2022/12/07 10:16:29;;;;;;;4.83;3.67;;;;;;;2.88;96.45;98403.53;1662119;83;21621;-77
2022/12/07 10:18:56;;;;;;;3.80;3.42;;;;;;;2.87;96.63;98403.98;1667418;84;21107;-77
2022/12/07 10:21:26;;;;;;;5.60;3.72;;;;;;;2.91;96.68;98401.70;1655711;84;21095;-77
2022/12/07 10:24:07;;;;;;;5.47;3.30;;;;;;;2.99;96.76;98399.27;1662858;84;21097;-77
2022/12/07 10:26:39;;;;;;;4.25;3.27;;;;;;;3.02;96.55;98392.70;1664879;84;21094;-76
2022/12/07 10:29:32;;;;;;;6.87;3.87;;;;;;;2.99;96.37;98385.09;1675494;84;21668;-77
2022/12/07 10:32:16;;;;;;;8.48;4.00;;;;;;;2.97;96.22;98386.88;1653809;84;21423;-76
2022/12/07 10:34:43;;;;;;;3.87;3.30;;;;;;;2.97;96.35;98386.88;1659433;84;21051;-76
2022/12/07 10:37:17;;;;;;;3.80;3.40;;;;;;;2.93;96.16;98377.59;1677517;84;21011;-76
2022/12/07 10:39:57;;;;;;;3.67;3.27;;;;;;;2.90;96.10;98376.80;1682319;84;21006;-77
2022/12/07 10:42:32;;;;;;;4.40;3.50;;;;;;;2.93;96.34;98377.59;1680698;84;21611;-76
2022/12/07 10:45:18;;;;;;;4.05;3.58;;;;;;;2.89;96.04;98377.70;1637569;86;21017;-76
2022/12/07 10:48:01;;;;;;;6.00;4.28;;;;;;;2.84;95.94;98371.88;1646585;84;21016;-76
2022/12/07 10:50:50;;;;;;;4.28;3.35;;;;;;;2.84;95.91;98371.88;1671722;84;21042;-76
2022/12/07 10:54:01;;;;;;;5.03;3.10;;;;;;;2.83;95.87;98362.48;1668644;84;21054;-76
2022/12/07 10:57:03;;;;;;;3.72;3.37;;;;;;;2.83;95.71;98357.32;1658829;85;21009;-77
2022/12/07 10:59:43;;;;;;;4.20;3.55;;;;;;;2.82;95.82;98358.20;1632656;87;21020;-77
2022/12/07 11:02:27;;;;;;;6.28;3.70;;;;;;;2.87;96.11;98358.88;1638433;86;21085;-77
2022/12/07 11:05:32;;;;;;;4.33;3.77;;;;;;;3.03;96.12;98354.44;1630569;86;21028;-76
2022/12/07 11:08:30;;;;;;;5.58;3.85;;;;;;;3.08;95.92;98353.78;1643652;86;21124;-77
2022/12/07 11:11:26;;;;;;;4.15;3.62;;;;;;;3.08;95.78;98346.05;1652486;86;21029;-77
2022/12/07 11:14:10;;;;;;;3.52;3.22;;;;;;;3.08;95.54;98335.73;1653815;86;21049;-76
2022/12/07 11:17:05;;;;;;;3.70;3.30;;;;;;;3.09;95.65;98334.85;1646811;86;21690;-77
2022/12/07 11:19:50;;;;;;;6.15;3.60;;;;;;;3.20;95.77;98330.11;1647659;86;21063;-76
2022/12/07 11:22:22;;;;;;;6.33;3.70;;;;;;;3.28;95.74;98316.91;1654138;85;21058;-77
2022/12/07 11:25:06;;;;;;;3.50;3.10;;;;;;;3.24;95.33;98320.50;1650166;86;21087;-77
2022/12/07 11:28:10;;;;;;;3.83;3.05;;;;;;;3.21;95.14;98311.14;1651377;85;21094;-77
2022/12/07 11:30:42;;;;;;;5.90;4.22;;;;;;;3.23;95.27;98313.67;1647185;86;21034;-76
2022/12/07 11:33:36;;;;;;;4.75;3.60;;;;;;;3.26;95.26;98318.25;1661434;84;21624;-76
2022/12/07 11:36:19;;;;;;;7.30;3.83;;;;;;;3.20;95.02;98317.22;1687574;83;21136;-77
2022/12/07 11:38:51;;;;;;;4.70;3.72;;;;;;;3.22;95.14;98315.84;1676390;84;21612;-76
2022/12/07 11:41:22;;;;;;;5.50;4.12;;;;;;;3.20;95.17;98314.63;1691089;84;21139;-77
2022/12/07 11:44:25;;;;;;;4.53;3.85;;;;;;;3.18;94.99;98313.84;1685958;84;21673;-77
2022/12/07 11:47:12;;;;;;;3.75;3.40;;;;;;;3.16;95.03;98304.03;1679931;84;21481;-76
2022/12/07 11:50:07;;;;;;;8.50;4.53;;;;;;;3.08;94.82;98313.81;1687183;84;21548;-76
2022/12/07 11:53:00;;;;;;;7.35;4.72;;;;;;;2.98;94.56;98312.52;1684519;84;21659;-75
2022/12/07 11:55:59;;;;;;;5.62;4.50;;;;;;;2.87;94.59;98308.59;1585596;90;21093;-76
2022/12/07 11:59:05;;;;;;;5.08;4.10;;;;;;;2.76;94.54;98303.02;1612394;89;21096;-77
2022/12/07 12:01:52;;;;;;;7.80;4.20;;;;;;;2.68;94.53;98302.47;1614213;89;21018;-76
2022/12/07 12:04:32;;;;;;;8.93;4.87;;;;;;;2.62;94.57;98298.84;1605987;89;21061;-76
2022/12/07 12:06:59;;;;;;;5.05;4.55;;;;;;;2.41;95.35;98303.91;1610171;88;21183;-76